createdAt,value
2022-09-20T00:01:06.351Z,1.90
2022-09-20T00:03:32.691Z,2.03
2022-09-20T00:06:00.669Z,1.80
2022-09-20T00:08:26.894Z,1.35
2022-09-20T00:10:57.494Z,1.77
2022-09-20T00:13:23.719Z,1.60
2022-09-20T00:15:49.946Z,1.40
2022-09-20T00:18:16.169Z,1.02
2022-09-20T00:20:49.133Z,1.70
2022-09-20T00:23:15.968Z,1.48
2022-09-20T00:25:42.691Z,1.85
2022-09-20T00:28:09.412Z,1.35
2022-09-20T00:30:35.645Z,1.98
2022-09-20T00:33:02.078Z,1.73
2022-09-20T00:35:29.581Z,1.85
2022-09-20T00:37:55.830Z,1.52
2022-09-20T00:40:23.634Z,1.70
2022-09-20T00:42:50.029Z,1.27
2022-09-20T00:45:23.912Z,1.55
2022-09-20T00:47:53.351Z,1.38
2022-09-20T00:50:22.371Z,1.73
2022-09-20T00:52:51.181Z,1.35
2022-09-20T00:55:18.703Z,1.25
2022-09-20T00:57:45.898Z,1.60
2022-09-20T01:00:12.813Z,1.25
2022-09-20T01:02:41.823Z,1.50
2022-09-20T01:05:09.505Z,1.23
2022-09-20T01:07:35.871Z,1.38
2022-09-20T01:10:02.250Z,1.83
2022-09-20T01:12:30.446Z,0.90
2022-09-20T01:14:57.328Z,1.30
2022-09-20T01:17:25.819Z,1.20
2022-09-20T01:19:58.092Z,1.60
2022-09-20T01:22:43.222Z,1.40
2022-09-20T01:25:18.025Z,1.42
2022-09-20T01:27:45.825Z,1.27
2022-09-20T01:30:14.330Z,1.20
2022-09-20T01:32:59.430Z,1.50
2022-09-20T01:35:28.590Z,1.50
2022-09-20T01:38:13.720Z,1.45
2022-09-20T01:40:47.727Z,1.38
2022-09-20T01:43:18.253Z,1.30
2022-09-20T01:45:48.066Z,1.30
2022-09-20T01:48:33.101Z,1.10
2022-09-20T01:51:18.272Z,1.37
2022-09-20T01:53:50.818Z,1.58
2022-09-20T01:56:17.012Z,1.42
2022-09-20T01:59:22.749Z,1.38
2022-09-20T02:01:53.353Z,1.83
2022-09-20T02:04:22.662Z,1.48
2022-09-20T02:07:07.911Z,0.80
2022-09-20T02:09:46.410Z,1.23
2022-09-20T02:12:22.238Z,1.13
2022-09-20T02:14:51.449Z,1.98
2022-09-20T02:17:20.684Z,1.50
2022-09-20T02:19:53.668Z,1.08
2022-09-20T02:22:19.991Z,1.42
2022-09-20T02:24:49.262Z,1.25
2022-09-20T02:27:21.526Z,1.20
2022-09-20T02:29:53.938Z,1.73
2022-09-20T02:32:35.480Z,1.02
2022-09-20T02:35:07.769Z,1.50
2022-09-20T02:37:52.360Z,1.33
2022-09-20T02:40:18.679Z,1.10
2022-09-20T02:42:48.573Z,1.38
2022-09-20T02:45:17.812Z,1.58
2022-09-20T02:47:44.349Z,2.65
2022-09-20T02:50:19.887Z,1.40
2022-09-20T02:55:21.293Z,0.90
2022-09-20T02:58:07.396Z,1.45
2022-09-20T03:00:40.404Z,1.23
2022-09-20T03:03:25.485Z,1.35
2022-09-20T03:05:57.815Z,1.08
2022-09-20T03:08:34.993Z,1.88
2022-09-20T03:11:12.065Z,1.58
2022-09-20T03:13:57.238Z,1.50
2022-09-20T03:16:41.767Z,1.20
2022-09-20T03:19:11.975Z,1.20
2022-09-20T03:21:44.017Z,1.70
2022-09-20T03:24:13.337Z,1.33
2022-09-20T03:26:58.472Z,1.67
2022-09-20T03:29:24.673Z,1.45
2022-09-20T03:32:05.087Z,2.95
2022-09-20T03:34:40.847Z,1.67
2022-09-20T03:37:10.073Z,1.73
2022-09-20T03:39:45.362Z,1.42
2022-09-20T03:42:18.005Z,2.05
2022-09-20T03:45:08.704Z,2.00
2022-09-20T03:47:53.269Z,1.90
2022-09-20T03:50:22.510Z,1.80
2022-09-20T03:52:51.826Z,2.63
2022-09-20T03:55:21.109Z,1.88
2022-09-20T03:57:56.554Z,1.40
2022-09-20T04:00:41.699Z,2.80
2022-09-20T04:03:20.461Z,1.88
2022-09-20T04:06:00.199Z,1.60
2022-09-20T04:08:40.297Z,1.63
2022-09-20T04:11:11.511Z,1.45
2022-09-20T04:13:39.424Z,2.67
2022-09-20T04:16:13.603Z,2.88
2022-09-20T04:18:57.040Z,1.55
2022-09-20T04:21:43.400Z,1.65
2022-09-20T04:24:12.238Z,2.22
2022-09-20T04:26:41.300Z,2.85
2022-09-20T04:29:26.494Z,2.58
2022-09-20T04:31:59.071Z,1.90
2022-09-20T04:34:48.091Z,1.77
2022-09-20T04:37:22.916Z,1.73
2022-09-20T04:39:57.152Z,2.67
2022-09-20T04:42:44.889Z,2.10
2022-09-20T04:45:17.870Z,2.00
2022-09-20T04:48:06.052Z,2.10
2022-09-20T04:50:50.881Z,2.60
2022-09-20T04:53:38.536Z,2.10
2022-09-20T04:56:19.497Z,2.95
2022-09-20T04:58:49.789Z,2.42
2022-09-20T05:01:28.240Z,2.00
2022-09-20T05:03:59.463Z,2.47
2022-09-20T05:06:38.994Z,2.33
2022-09-20T05:09:14.541Z,2.08
2022-09-20T05:14:28.580Z,1.90
2022-09-20T05:16:57.822Z,2.63
2022-09-20T05:19:43.594Z,2.25
2022-09-20T05:22:10.009Z,2.20
2022-09-20T05:24:46.190Z,2.95
2022-09-20T05:27:12.492Z,2.72
2022-09-20T05:29:44.996Z,2.58
2022-09-20T05:32:27.856Z,2.70
2022-09-20T05:35:00.332Z,3.00
2022-09-20T05:37:48.017Z,2.38
2022-09-20T05:40:17.405Z,2.22
2022-09-20T05:42:44.152Z,2.00
2022-09-20T05:45:23.445Z,2.63
2022-09-20T05:47:56.672Z,3.78
2022-09-20T05:50:39.296Z,2.50
2022-09-20T05:53:25.516Z,2.42
2022-09-20T05:55:57.522Z,2.03
2022-09-20T05:58:34.167Z,1.77
2022-09-20T06:01:18.935Z,3.00
2022-09-20T06:03:48.915Z,2.33
2022-09-20T06:06:22.507Z,2.42
2022-09-20T06:08:51.595Z,2.35
2022-09-20T06:11:36.121Z,1.95
2022-09-20T06:14:09.363Z,2.05
2022-09-20T06:16:44.626Z,2.35
2022-09-20T06:19:17.083Z,2.95
2022-09-20T06:22:03.514Z,3.70
2022-09-20T06:24:36.646Z,2.58
2022-09-20T06:27:08.588Z,2.70
2022-09-20T06:29:36.557Z,2.47
2022-09-20T06:32:05.612Z,3.25
2022-09-20T06:34:32.058Z,3.20
2022-09-20T06:37:25.342Z,2.88
2022-09-20T06:40:10.179Z,2.38
2022-09-20T06:42:37.561Z,2.67
2022-09-20T06:45:04.198Z,2.05
2022-09-20T06:47:30.428Z,3.10
2022-09-20T06:49:58.836Z,2.60
2022-09-20T06:52:25.082Z,2.92
2022-09-20T06:54:53.757Z,2.60
2022-09-20T06:57:23.092Z,2.67
2022-09-20T06:59:49.316Z,2.35
2022-09-20T07:02:15.573Z,3.10
2022-09-20T07:04:42.249Z,2.55
2022-09-20T07:07:09.688Z,3.22
2022-09-20T07:09:36.099Z,2.80
2022-09-20T07:12:02.475Z,2.38
2022-09-20T07:14:28.781Z,2.67
2022-09-20T07:16:55.073Z,3.50
2022-09-20T07:19:23.249Z,3.25
2022-09-20T07:21:49.466Z,2.40
2022-09-20T07:24:15.696Z,2.40
2022-09-20T07:26:55.186Z,2.38
2022-09-20T07:29:21.403Z,2.47
2022-09-20T07:31:47.943Z,2.83
2022-09-20T07:34:14.192Z,2.40
2022-09-20T07:36:40.475Z,2.60
2022-09-20T07:39:06.682Z,2.85
2022-09-20T07:41:32.920Z,2.33
2022-09-20T07:44:19.155Z,2.40
2022-09-20T07:46:46.050Z,2.78
2022-09-20T07:49:12.254Z,2.40
2022-09-20T07:51:38.474Z,2.72
2022-09-20T07:54:04.765Z,4.32
2022-09-20T07:56:30.972Z,3.20
2022-09-20T07:58:57.307Z,1.48
2022-09-20T08:01:23.592Z,1.40
2022-09-20T08:03:49.963Z,1.25
2022-09-20T08:06:18.274Z,0.90
2022-09-20T08:08:45.301Z,0.90
2022-09-20T08:11:14.076Z,1.20
2022-09-20T08:16:28.882Z,1.13
2022-09-20T08:18:57.088Z,1.00
2022-09-20T08:21:25.430Z,1.70
2022-09-20T08:23:51.660Z,1.60
2022-09-20T08:26:21.243Z,1.38
2022-09-20T08:28:49.947Z,1.30
2022-09-20T08:31:19.264Z,1.35
2022-09-20T08:33:47.348Z,1.50
2022-09-20T08:36:15.442Z,2.90
2022-09-20T08:41:31.136Z,1.67
2022-09-20T08:44:06.009Z,1.17
2022-09-20T08:46:35.460Z,1.42
2022-09-20T08:49:04.097Z,1.27
2022-09-20T08:51:33.846Z,1.20
2022-09-20T08:54:00.523Z,1.17
2022-09-20T08:56:29.575Z,1.30
2022-09-20T08:59:00.207Z,1.17
2022-09-20T09:01:27.039Z,2.22
2022-09-20T09:03:57.776Z,1.13
2022-09-20T09:06:24.794Z,1.15
2022-09-20T09:08:53.583Z,1.02
2022-09-20T09:11:21.001Z,0.95
2022-09-20T09:14:04.598Z,1.38
2022-09-20T09:16:35.279Z,1.10
2022-09-20T09:19:21.155Z,0.95
2022-09-20T09:21:47.378Z,1.33
2022-09-20T09:24:17.931Z,1.00
2022-09-20T09:26:44.226Z,0.82
2022-09-20T09:29:15.980Z,0.85
2022-09-20T09:31:43.793Z,0.95
2022-09-20T09:34:38.643Z,0.57
2022-09-20T09:37:04.923Z,0.70
2022-09-20T09:39:40.448Z,1.50
2022-09-20T09:44:33.883Z,0.85
2022-09-20T09:47:00.382Z,0.75
2022-09-20T09:49:27.580Z,0.75
2022-09-20T09:52:05.985Z,0.65
2022-09-20T09:54:37.541Z,0.57
2022-09-20T09:57:10.823Z,0.75
2022-09-20T09:59:57.654Z,0.60
2022-09-20T10:02:42.362Z,0.73
2022-09-20T10:05:28.932Z,0.70
2022-09-20T10:08:01.228Z,0.70
2022-09-20T10:10:45.469Z,0.90
2022-09-20T10:13:18.755Z,0.80
2022-09-20T10:15:53.334Z,0.55
2022-09-20T10:18:25.684Z,0.80
2022-09-20T10:20:55.790Z,0.80
2022-09-20T10:26:36.434Z,1.02
2022-09-20T10:29:15.566Z,0.80
2022-09-20T10:31:57.213Z,0.82
2022-09-20T10:34:43.689Z,0.70
2022-09-20T10:37:22.592Z,0.60
2022-09-20T10:39:53.615Z,0.70
2022-09-20T10:42:47.865Z,0.90
2022-09-20T10:45:53.668Z,0.98
2022-09-20T10:48:18.031Z,0.88
2022-09-20T10:51:04.153Z,0.68
2022-09-20T10:53:43.891Z,1.45
2022-09-20T10:56:19.346Z,0.82
2022-09-20T11:01:31.583Z,0.93
2022-09-20T11:04:06.968Z,0.82
2022-09-20T11:06:51.969Z,0.60
2022-09-20T11:09:21.442Z,0.80
2022-09-20T11:11:50.490Z,3.85
2022-09-20T11:14:30.079Z,0.93
2022-09-20T11:17:00.584Z,1.58
2022-09-20T11:19:57.153Z,1.17
2022-09-20T11:22:26.503Z,0.75
2022-09-20T11:25:11.366Z,1.52
2022-09-20T11:27:58.112Z,0.90
2022-09-20T11:30:24.619Z,0.63
2022-09-20T11:32:56.551Z,0.80
2022-09-20T11:35:41.447Z,0.70
2022-09-20T11:38:14.402Z,0.80
2022-09-20T11:40:43.907Z,0.57
2022-09-20T11:43:10.837Z,0.50
2022-09-20T11:45:42.966Z,0.73
2022-09-20T11:48:15.085Z,1.17
2022-09-20T11:51:00.252Z,0.73
2022-09-20T11:53:32.168Z,0.70
2022-09-20T11:56:05.811Z,1.10
2022-09-20T11:58:43.570Z,0.75
2022-09-20T12:01:12.421Z,0.70
2022-09-20T12:03:40.636Z,1.60
2022-09-20T12:06:08.739Z,1.05
2022-09-20T12:08:36.213Z,0.70
2022-09-20T12:11:04.853Z,0.63
2022-09-20T12:13:33.158Z,1.63
2022-09-20T12:16:03.640Z,0.70
2022-09-20T12:18:35.896Z,0.90
2022-09-20T12:21:04.703Z,0.60
2022-09-20T12:23:37.680Z,0.90
2022-09-20T12:26:20.271Z,1.08
2022-09-20T12:28:49.929Z,1.13
2022-09-20T12:31:22.276Z,0.88
2022-09-20T12:33:54.448Z,0.80
2022-09-20T12:36:20.696Z,0.73
2022-09-20T12:38:48.329Z,1.73
2022-09-20T12:41:16.848Z,0.90
2022-09-20T12:43:57.488Z,0.70
2022-09-20T12:46:45.346Z,0.70
2022-09-20T12:49:37.661Z,0.90
2022-09-20T12:52:22.467Z,0.95
2022-09-20T12:54:50.837Z,1.25
2022-09-20T12:57:19.001Z,1.00
2022-09-20T12:59:55.612Z,1.30
2022-09-20T13:02:41.028Z,1.08
2022-09-20T13:05:38.429Z,0.82
2022-09-20T13:08:25.067Z,0.82
2022-09-20T13:11:07.568Z,0.82
2022-09-20T13:13:37.376Z,0.70
2022-09-20T13:16:05.844Z,0.70
2022-09-20T13:18:34.486Z,1.15
2022-09-20T13:21:06.035Z,0.93
2022-09-20T13:23:45.362Z,1.00
2022-09-20T13:26:13.101Z,0.75
2022-09-20T13:28:44.339Z,1.08
2022-09-20T13:31:24.427Z,0.82
2022-09-20T13:33:51.181Z,0.70
2022-09-20T13:36:29.075Z,1.33
2022-09-20T13:38:56.930Z,1.20
2022-09-20T13:41:27.375Z,1.90
2022-09-20T13:43:53.791Z,0.82
2022-09-20T13:46:24.821Z,0.68
2022-09-20T13:48:59.477Z,0.82
2022-09-20T13:51:26.699Z,1.05
2022-09-20T13:53:53.252Z,0.60
2022-09-20T13:56:21.483Z,0.82
2022-09-20T13:58:48.239Z,1.33
2022-09-20T14:01:30.801Z,0.85
2022-09-20T14:04:16.374Z,0.70
2022-09-20T14:06:45.433Z,0.80
2022-09-20T14:09:39.157Z,0.70
2022-09-20T14:12:06.027Z,0.98
2022-09-20T14:14:33.242Z,1.02
2022-09-20T14:17:00.875Z,2.50
2022-09-20T14:19:40.596Z,0.50
2022-09-20T14:22:08.398Z,0.90
2022-09-20T14:24:35.846Z,0.85
2022-09-20T14:27:03.743Z,0.50
2022-09-20T14:29:38.652Z,0.75
2022-09-20T14:32:06.629Z,0.95
2022-09-20T14:34:39.772Z,1.00
2022-09-20T14:37:09.466Z,0.70
2022-09-20T14:39:44.919Z,0.98
2022-09-20T14:42:29.521Z,1.13
2022-09-20T14:44:55.897Z,0.88
2022-09-20T14:47:37.367Z,0.77
2022-09-20T14:50:04.703Z,0.90
2022-09-20T14:52:34.584Z,2.33
2022-09-20T14:55:10.254Z,0.90
2022-09-20T14:57:38.088Z,1.05
2022-09-20T15:00:15.215Z,0.82
2022-09-20T15:02:42.912Z,0.95
2022-09-20T15:05:16.991Z,0.88
2022-09-20T15:07:43.293Z,0.80
2022-09-20T15:10:12.934Z,1.48
2022-09-20T15:12:39.156Z,1.00
2022-09-20T15:15:05.572Z,0.90
2022-09-20T15:17:31.788Z,1.05
2022-09-20T15:19:59.125Z,0.80
2022-09-20T15:22:26.294Z,0.70
2022-09-20T15:24:52.504Z,0.80
2022-09-20T15:27:18.734Z,0.90
2022-09-20T15:29:44.983Z,0.75
2022-09-20T15:32:11.187Z,0.80
2022-09-20T15:34:37.841Z,1.15
2022-09-20T15:37:04.776Z,1.20
2022-09-20T15:39:31.012Z,0.47
2022-09-20T15:41:57.230Z,1.63
2022-09-20T15:44:23.495Z,0.68
2022-09-20T15:46:50.759Z,0.90
2022-09-20T15:49:17.030Z,0.70
2022-09-20T15:51:43.268Z,0.80
2022-09-20T15:54:12.620Z,1.55
2022-09-20T15:56:40.405Z,1.00
2022-09-20T15:59:07.721Z,1.05
2022-09-20T16:01:39.474Z,0.63
2022-09-20T16:04:07.237Z,0.95
2022-09-20T16:06:34.805Z,1.02
2022-09-20T16:09:01.039Z,0.77
2022-09-20T16:11:27.989Z,1.05
2022-09-20T16:13:54.735Z,0.90
2022-09-20T16:16:21.484Z,0.85
2022-09-20T16:19:06.675Z,0.65
2022-09-20T16:21:33.430Z,0.75
2022-09-20T16:24:00.978Z,0.90
2022-09-20T16:26:27.936Z,0.85
2022-09-20T16:28:55.608Z,0.80
2022-09-20T16:31:28.903Z,0.50
2022-09-20T16:33:55.162Z,0.95
2022-09-20T16:36:27.299Z,0.70
2022-09-20T16:38:55.686Z,0.70
2022-09-20T16:41:25.695Z,0.68
2022-09-20T16:43:52.647Z,0.85
2022-09-20T16:46:20.440Z,1.10
2022-09-20T16:48:54.677Z,0.73
2022-09-20T16:51:21.980Z,0.73
2022-09-20T16:53:48.232Z,0.60
2022-09-20T16:56:24.607Z,0.65
2022-09-20T16:58:51.195Z,0.80
2022-09-20T17:01:17.776Z,0.70
2022-09-20T17:03:44.705Z,1.40
2022-09-20T17:06:11.147Z,0.77
2022-09-20T17:08:40.941Z,1.80
2022-09-20T17:11:14.957Z,0.93
2022-09-20T17:13:42.568Z,0.70
2022-09-20T17:16:13.170Z,0.68
2022-09-20T17:18:43.144Z,0.47
2022-09-20T17:21:13.658Z,0.93
2022-09-20T17:23:41.020Z,0.88
2022-09-20T17:26:11.528Z,0.80
2022-09-20T17:28:38.794Z,0.65
2022-09-20T17:31:05.631Z,1.13
2022-09-20T17:33:33.517Z,0.98
2022-09-20T17:36:01.011Z,0.63
2022-09-20T17:38:28.338Z,0.93
2022-09-20T17:41:01.332Z,0.88
2022-09-20T17:43:29.804Z,1.10
2022-09-20T17:45:56.754Z,1.15
2022-09-20T17:48:23.748Z,0.70
2022-09-20T17:50:56.272Z,1.33
2022-09-20T17:53:22.544Z,1.30
2022-09-20T17:55:55.600Z,1.42
2022-09-20T17:58:22.412Z,1.13
2022-09-20T18:00:49.544Z,1.35
2022-09-20T18:03:16.612Z,1.70
2022-09-20T18:05:42.903Z,1.25
2022-09-20T18:08:09.433Z,1.45
2022-09-20T18:10:35.663Z,1.70
2022-09-20T18:13:01.896Z,1.35
2022-09-20T18:15:28.091Z,1.30
2022-09-20T18:17:54.646Z,1.42
2022-09-20T18:20:20.947Z,1.25
2022-09-20T18:22:50.243Z,1.13
2022-09-20T18:25:16.667Z,1.40
2022-09-20T18:27:43.267Z,1.35
2022-09-20T18:30:09.777Z,1.48
2022-09-20T18:32:36.079Z,1.27
2022-09-20T18:35:02.642Z,1.50
2022-09-20T18:37:30.568Z,1.38
2022-09-20T18:39:56.762Z,1.50
2022-09-20T18:42:22.973Z,1.30
2022-09-20T18:44:49.525Z,1.38
2022-09-20T18:47:15.952Z,1.25
2022-09-20T18:49:42.176Z,1.63
2022-09-20T18:52:10.904Z,1.42
2022-09-20T18:54:37.270Z,1.67
2022-09-20T18:57:03.647Z,1.80
2022-09-20T18:59:30.021Z,1.73
2022-09-20T19:02:05.093Z,2.53
2022-09-20T19:04:43.335Z,1.77
2022-09-20T19:07:30.918Z,2.03
2022-09-20T19:10:03.115Z,2.30
2022-09-20T19:12:32.329Z,1.67
2022-09-20T19:15:17.355Z,1.83
2022-09-20T19:17:47.806Z,2.40
2022-09-20T19:20:31.045Z,2.00
2022-09-20T19:23:15.305Z,2.30
2022-09-20T19:25:44.138Z,3.15
2022-09-20T19:28:11.253Z,2.92
2022-09-20T19:30:39.541Z,3.67
2022-09-20T19:33:06.866Z,3.20
2022-09-20T19:35:35.637Z,3.25
2022-09-20T19:38:15.276Z,3.35
2022-09-20T19:40:47.456Z,3.30
2022-09-20T19:43:16.722Z,2.90
2022-09-20T19:45:48.373Z,3.00
2022-09-20T19:48:37.311Z,3.72
2022-09-20T19:51:04.589Z,3.45
2022-09-20T19:53:31.014Z,3.67
2022-09-20T19:56:00.721Z,2.70
2022-09-20T19:58:27.069Z,3.15
2022-09-20T20:00:53.710Z,2.70
2022-09-20T20:03:23.421Z,2.88
2022-09-20T20:05:56.027Z,2.78
2022-09-20T20:08:26.117Z,2.95
2022-09-20T20:11:01.384Z,2.70
2022-09-20T20:13:49.627Z,2.85
2022-09-20T20:16:19.002Z,3.15
2022-09-20T20:19:08.347Z,2.97
2022-09-20T20:21:48.853Z,3.17
2022-09-20T20:24:19.906Z,3.20
2022-09-20T20:26:46.200Z,3.35
2022-09-20T20:29:12.451Z,3.38
2022-09-20T20:31:38.746Z,4.10
2022-09-20T20:34:04.995Z,5.93
2022-09-20T20:36:31.217Z,5.15
2022-09-20T20:38:57.442Z,5.03
2022-09-20T20:41:23.675Z,4.35
2022-09-20T20:43:54.310Z,5.07
2022-09-20T20:46:20.626Z,5.13
2022-09-20T20:48:49.857Z,5.40
2022-09-20T20:51:17.214Z,4.03
2022-09-20T20:53:47.723Z,4.45
2022-09-20T20:56:15.732Z,3.97
2022-09-20T20:58:42.772Z,4.72
2022-09-20T21:01:14.707Z,3.95
2022-09-20T21:03:42.863Z,5.03
2022-09-20T21:06:12.207Z,3.70
2022-09-20T21:08:39.369Z,3.35
2022-09-20T21:11:07.392Z,3.58
2022-09-20T21:13:35.167Z,3.30
2022-09-20T21:16:02.495Z,3.10
2022-09-20T21:18:28.812Z,4.15
2022-09-20T21:20:55.029Z,3.42
2022-09-20T21:23:21.280Z,3.80
2022-09-20T21:25:47.668Z,3.75
2022-09-20T21:28:13.892Z,2.92
2022-09-20T21:30:40.193Z,3.00
2022-09-20T21:33:07.001Z,3.22
2022-09-20T21:35:33.241Z,3.22
2022-09-20T21:37:59.483Z,3.72
2022-09-20T21:40:26.077Z,2.97
2022-09-20T21:42:52.324Z,3.10
2022-09-20T21:45:24.109Z,2.97
2022-09-20T21:47:50.330Z,2.50
2022-09-20T21:50:16.565Z,2.78
2022-09-20T21:52:52.428Z,3.40
2022-09-20T21:55:18.642Z,3.22
2022-09-20T21:57:44.869Z,2.83
2022-09-20T22:00:11.427Z,3.00
2022-09-20T22:02:37.660Z,3.50
2022-09-20T22:05:04.040Z,2.95
2022-09-20T22:07:30.475Z,3.20
2022-09-20T22:09:56.690Z,2.67
2022-09-20T22:12:24.182Z,2.85
2022-09-20T22:14:50.486Z,3.20
2022-09-20T22:17:16.714Z,2.75
2022-09-20T22:19:44.682Z,3.30
2022-09-20T22:22:11.052Z,3.08
2022-09-20T22:24:37.449Z,2.45
2022-09-20T22:27:03.799Z,2.53
2022-09-20T22:29:30.093Z,3.60
2022-09-20T22:31:56.394Z,2.72
2022-09-20T22:34:24.160Z,2.65
2022-09-20T22:36:50.650Z,3.08
2022-09-20T22:39:17.164Z,2.72
2022-09-20T22:41:43.602Z,3.08
2022-09-20T22:44:10.493Z,2.50
2022-09-20T22:46:37.103Z,2.78
2022-09-20T22:49:07.042Z,3.83
2022-09-20T22:51:33.453Z,2.55
2022-09-20T22:54:00.360Z,2.75
2022-09-20T22:56:31.178Z,2.95
2022-09-20T22:59:00.065Z,3.33
2022-09-20T23:01:27.577Z,2.70
2022-09-20T23:03:57.884Z,2.90
2022-09-20T23:06:28.570Z,2.85
2022-09-20T23:08:59.054Z,3.03
2022-09-20T23:11:25.743Z,3.17
2022-09-20T23:13:55.948Z,2.65
2022-09-20T23:16:24.328Z,2.70
2022-09-20T23:18:51.286Z,3.65
2022-09-20T23:21:18.024Z,2.28
2022-09-20T23:23:44.871Z,2.83
2022-09-20T23:26:16.069Z,3.28
2022-09-20T23:28:43.412Z,3.20
2022-09-20T23:31:11.225Z,3.60
2022-09-20T23:33:37.847Z,3.35
2022-09-20T23:36:08.860Z,3.00
2022-09-20T23:38:37.969Z,3.17
2022-09-20T23:41:08.178Z,2.70
2022-09-20T23:43:35.265Z,3.17
2022-09-20T23:46:01.985Z,2.95
2022-09-20T23:48:28.412Z,2.75
2022-09-20T23:50:54.734Z,3.30
2022-09-20T23:53:21.222Z,2.85
2022-09-20T23:55:47.553Z,3.05
2022-09-20T23:58:14.275Z,2.97
